Time;durP1;ratioP1;P1;durP2;ratioP2;P2;SDS_P1;SDS_P2;PMS_P1;PMS_P2;Temp;Humidity;BMP_temperature;BMP_pressure;BME280_temperature;BME280_humidity;BME280_pressure;Samples;Min_cycle;Max_cycle;Signal;HPM_P1;HPM_P2
2021/05/19 00:05:05;;;;;;;1.77;1.60;;;;;;;;;;4957471;29;20497;-72
2021/05/19 00:07:31;;;;;;;3.50;1.30;;;;;;;;;;4958575;29;20405;-72
2021/05/19 00:09:57;;;;;;;2.40;1.70;;;;;;;;;;4957816;29;20420;-73
2021/05/19 00:12:23;;;;;;;1.90;1.47;;;;;;;;;;4957559;29;20788;-74
2021/05/19 00:14:49;;;;;;;1.90;1.30;;;;;;;;;;4957440;29;20423;-72
2021/05/19 00:17:15;;;;;;;1.60;1.50;;;;;;;;;;4957370;29;20800;-73
2021/05/19 00:19:41;;;;;;;2.23;2.03;;;;;;;;;;4957383;29;20506;-72
2021/05/19 00:22:07;;;;;;;1.13;1.03;;;;;;;;;;4957610;29;20487;-72
2021/05/19 00:24:33;;;;;;;2.07;1.67;;;;;;;;;;4957190;29;20783;-72
2021/05/19 00:26:59;;;;;;;3.07;1.90;;;;;;;;;;4957431;29;20889;-72
2021/05/19 00:29:25;;;;;;;1.57;1.47;;;;;;;;;;4957330;29;20408;-73
2021/05/19 00:34:54;;;;;;;2.10;1.57;;;;;;;;;;4956951;29;20791;-72
2021/05/19 00:37:20;;;;;;;1.70;1.50;;;;;;;;;;4957035;29;20462;-73
2021/05/19 00:39:46;;;;;;;1.87;1.60;;;;;;;;;;4957121;29;20434;-73
2021/05/19 00:42:13;;;;;;;2.10;1.40;;;;;;;;;;4956935;29;20415;-73
2021/05/19 00:44:39;;;;;;;2.20;1.63;;;;;;;;;;4956198;28;20401;-73
2021/05/19 00:50:10;;;;;;;1.53;1.43;;;;;;;;;;4956735;29;20579;-73
2021/05/19 00:52:36;;;;;;;2.10;1.73;;;;;;;;;;4956844;29;20499;-73
2021/05/19 00:55:02;;;;;;;2.20;1.70;;;;;;;;;;4956722;29;20979;-73
2021/05/19 00:57:30;;;;;;;2.17;1.50;;;;;;;;;;4939706;29;20493;-74
2021/05/19 00:59:56;;;;;;;2.27;1.40;;;;;;;;;;4956687;29;20507;-73
2021/05/19 01:05:41;;;;;;;2.10;1.43;;;;;;;;;;4956274;29;20589;-72
2021/05/19 01:10:52;;;;;;;2.27;1.63;;;;;;;;;;4956669;29;20499;-72
2021/05/19 01:13:19;;;;;;;1.83;1.73;;;;;;;;;;4956444;29;20408;-72
2021/05/19 01:15:45;;;;;;;2.00;1.43;;;;;;;;;;4956279;29;20463;-73
2021/05/19 01:18:11;;;;;;;1.60;1.50;;;;;;;;;;4956529;29;20425;-74
2021/05/19 01:20:37;;;;;;;1.60;1.50;;;;;;;;;;4956334;29;20771;-72
2021/05/19 01:23:04;;;;;;;2.33;1.63;;;;;;;;;;4956603;29;20416;-72
2021/05/19 01:25:30;;;;;;;1.93;1.40;;;;;;;;;;4956170;29;20420;-72
2021/05/19 01:27:57;;;;;;;1.70;1.60;;;;;;;;;;4956167;29;20442;-74
2021/05/19 01:30:24;;;;;;;2.10;1.80;;;;;;;;;;4956108;29;20428;-73
2021/05/19 01:32:50;;;;;;;1.93;1.57;;;;;;;;;;4956189;29;20773;-72
2021/05/19 01:35:17;;;;;;;2.10;1.90;;;;;;;;;;4955840;29;20427;-73
2021/05/19 01:37:44;;;;;;;2.00;1.70;;;;;;;;;;4956238;29;20482;-73
2021/05/19 01:40:12;;;;;;;1.73;1.63;;;;;;;;;;4938509;29;20914;-73
2021/05/19 01:42:38;;;;;;;1.90;1.80;;;;;;;;;;4956206;29;20474;-73
2021/05/19 01:45:04;;;;;;;2.50;1.50;;;;;;;;;;4955948;29;20421;-72
2021/05/19 01:50:35;;;;;;;2.03;1.53;;;;;;;;;;4955751;29;20773;-72
2021/05/19 01:53:05;;;;;;;1.70;1.60;;;;;;;;;;4955879;29;20414;-74
2021/05/19 01:55:31;;;;;;;1.57;1.47;;;;;;;;;;4954190;28;20425;-71
2021/05/19 01:57:57;;;;;;;2.53;1.40;;;;;;;;;;4955523;29;20439;-73
2021/05/19 02:00:27;;;;;;;1.80;1.70;;;;;;;;;;4955551;29;20423;-73
2021/05/19 02:05:56;;;;;;;2.63;2.00;;;;;;;;;;4955325;29;20544;-74
2021/05/19 02:08:22;;;;;;;1.67;1.57;;;;;;;;;;4955593;29;20446;-73
2021/05/19 02:10:48;;;;;;;1.33;1.23;;;;;;;;;;4955301;29;20907;-72
2021/05/19 02:13:16;;;;;;;1.80;1.33;;;;;;;;;;4955430;29;20421;-72
2021/05/19 02:15:42;;;;;;;1.50;1.20;;;;;;;;;;4955267;29;20782;-72
2021/05/19 02:18:08;;;;;;;3.20;1.37;;;;;;;;;;4955410;29;20417;-71
2021/05/19 02:20:34;;;;;;;1.73;1.60;;;;;;;;;;4955146;29;20841;-71
2021/05/19 02:23:01;;;;;;;2.23;1.20;;;;;;;;;;4955142;29;20421;-72
2021/05/19 02:25:27;;;;;;;1.70;1.57;;;;;;;;;;4955004;29;20412;-71
2021/05/19 02:27:53;;;;;;;2.23;1.50;;;;;;;;;;4955309;29;20432;-72
2021/05/19 02:30:20;;;;;;;1.70;1.43;;;;;;;;;;4955469;29;20424;-72
2021/05/19 02:35:49;;;;;;;1.53;1.43;;;;;;;;;;4954941;29;20493;-72
2021/05/19 02:38:15;;;;;;;2.30;1.80;;;;;;;;;;4955133;29;20432;-73
2021/05/19 02:40:41;;;;;;;1.70;1.50;;;;;;;;;;4955118;29;20436;-71
2021/05/19 02:43:07;;;;;;;2.57;1.80;;;;;;;;;;4954954;29;20431;-73
2021/05/19 02:45:33;;;;;;;1.43;1.33;;;;;;;;;;4954975;29;20822;-73
2021/05/19 02:51:03;;;;;;;2.00;1.43;;;;;;;;;;4954776;29;20490;-73
2021/05/19 02:53:28;;;;;;;1.40;1.30;;;;;;;;;;4954824;29;20415;-71
2021/05/19 02:55:54;;;;;;;3.17;1.43;;;;;;;;;;4955024;29;20538;-73
2021/05/19 02:58:20;;;;;;;1.83;1.67;;;;;;;;;;4954780;29;20436;-73
2021/05/19 03:00:46;;;;;;;2.00;1.80;;;;;;;;;;4955046;29;20765;-71
2021/05/19 03:06:16;;;;;;;1.40;1.30;;;;;;;;;;4955216;28;20489;-72
2021/05/19 03:08:42;;;;;;;1.50;1.40;;;;;;;;;;4958888;29;20422;-73
2021/05/19 03:11:09;;;;;;;2.93;1.47;;;;;;;;;;4958861;29;20415;-73
2021/05/19 03:13:35;;;;;;;3.43;1.70;;;;;;;;;;4958708;29;20401;-73
2021/05/19 03:16:01;;;;;;;2.70;1.67;;;;;;;;;;4958642;29;20526;-72
2021/05/19 03:18:27;;;;;;;2.60;1.80;;;;;;;;;;4958915;29;20427;-72
2021/05/19 03:20:53;;;;;;;1.50;1.40;;;;;;;;;;4958500;29;20826;-72
2021/05/19 03:23:19;;;;;;;1.90;1.80;;;;;;;;;;4958627;29;20443;-72
2021/05/19 03:25:45;;;;;;;1.67;1.57;;;;;;;;;;4958670;29;20492;-73
2021/05/19 03:28:11;;;;;;;2.10;2.00;;;;;;;;;;4958519;29;20897;-72
2021/05/19 03:30:37;;;;;;;1.67;1.57;;;;;;;;;;4958561;29;20427;-73
2021/05/19 03:36:07;;;;;;;1.90;1.80;;;;;;;;;;4958030;29;20463;-72
2021/05/19 03:38:34;;;;;;;3.87;2.20;;;;;;;;;;4940968;29;20441;-71
2021/05/19 03:41:00;;;;;;;2.47;1.80;;;;;;;;;;4958114;29;20556;-73
2021/05/19 03:43:27;;;;;;;2.00;1.90;;;;;;;;;;4958110;29;20415;-72
2021/05/19 03:45:53;;;;;;;2.07;1.87;;;;;;;;;;4958075;29;20426;-72
2021/05/19 03:51:23;;;;;;;3.43;1.80;;;;;;;;;;4957903;29;20782;-72
2021/05/19 03:53:49;;;;;;;1.90;1.70;;;;;;;;;;4957908;29;20432;-73
2021/05/19 03:56:15;;;;;;;1.97;1.87;;;;;;;;;;4957457;29;20827;-71
2021/05/19 03:58:44;;;;;;;1.90;1.80;;;;;;;;;;4957753;29;20514;-72
2021/05/19 04:01:10;;;;;;;1.50;1.40;;;;;;;;;;4957843;29;20416;-72
2021/05/19 04:06:39;;;;;;;2.23;2.03;;;;;;;;;;4958316;29;20433;-72
2021/05/19 04:09:06;;;;;;;2.47;2.27;;;;;;;;;;4958094;29;20416;-72
2021/05/19 04:11:32;;;;;;;2.10;2.00;;;;;;;;;;4957566;29;20918;-73
2021/05/19 04:13:58;;;;;;;2.40;2.20;;;;;;;;;;4957625;29;20827;-72
2021/05/19 04:16:24;;;;;;;2.07;1.97;;;;;;;;;;4957420;29;20508;-72
2021/05/19 04:18:50;;;;;;;2.73;2.50;;;;;;;;;;4956201;28;20474;-72
2021/05/19 04:21:16;;;;;;;2.60;2.40;;;;;;;;;;4957502;29;20418;-72
2021/05/19 04:23:42;;;;;;;2.40;2.20;;;;;;;;;;4940125;29;20439;-75
2021/05/19 04:26:08;;;;;;;2.00;1.90;;;;;;;;;;4957239;29;20492;-72
2021/05/19 04:28:34;;;;;;;3.97;2.07;;;;;;;;;;4957297;29;20869;-72
2021/05/19 04:31:00;;;;;;;1.83;1.73;;;;;;;;;;4957553;29;20499;-71
2021/05/19 04:36:30;;;;;;;3.03;2.20;;;;;;;;;;4957186;29;20463;-72
2021/05/19 04:38:57;;;;;;;2.40;2.07;;;;;;;;;;4957427;29;20424;-73
2021/05/19 04:41:23;;;;;;;2.03;1.90;;;;;;;;;;4957369;29;20442;-72
2021/05/19 04:43:49;;;;;;;2.67;2.03;;;;;;;;;;4957006;29;20899;-72
2021/05/19 04:46:15;;;;;;;2.53;2.33;;;;;;;;;;4956948;29;20440;-71
2021/05/19 04:51:44;;;;;;;3.20;2.40;;;;;;;;;;4956853;29;20411;-72
2021/05/19 04:54:11;;;;;;;3.70;2.20;;;;;;;;;;4957031;29;20456;-71
2021/05/19 04:56:37;;;;;;;2.80;2.60;;;;;;;;;;4956670;29;20472;-72
2021/05/19 04:59:04;;;;;;;2.60;2.40;;;;;;;;;;4956780;29;20769;-72
2021/05/19 05:01:30;;;;;;;2.47;2.27;;;;;;;;;;4956731;29;21032;-72
2021/05/19 05:03:56;;;;;;;3.50;3.30;;;;;;;;;;4956339;29;20463;-73
2021/05/19 05:06:22;;;;;;;2.30;2.10;;;;;;;;;;4956503;29;20519;-72
2021/05/19 05:08:48;;;;;;;2.53;2.33;;;;;;;;;;4956646;29;20427;-71
2021/05/19 05:11:15;;;;;;;2.57;2.37;;;;;;;;;;4956534;29;20504;-72
2021/05/19 05:13:41;;;;;;;4.43;2.03;;;;;;;;;;4956554;29;20430;-73
2021/05/19 05:16:07;;;;;;;2.60;2.40;;;;;;;;;;4956645;29;20571;-72
2021/05/19 05:21:36;;;;;;;3.00;2.70;;;;;;;;;;4956461;29;20563;-73
2021/05/19 05:24:04;;;;;;;3.20;2.73;;;;;;;;;;4955975;29;20422;-71
2021/05/19 05:26:30;;;;;;;3.00;2.70;;;;;;;;;;4956246;29;20445;-70
2021/05/19 05:28:56;;;;;;;3.53;3.23;;;;;;;;;;4955867;28;20484;-72
2021/05/19 05:31:22;;;;;;;3.53;2.97;;;;;;;;;;4939009;29;20463;-72
2021/05/19 05:36:52;;;;;;;3.40;3.10;;;;;;;;;;4955442;29;20496;-72
2021/05/19 05:39:18;;;;;;;3.50;3.20;;;;;;;;;;4955514;29;20884;-72
2021/05/19 05:41:45;;;;;;;2.60;2.40;;;;;;;;;;4955619;29;20499;-73
2021/05/19 05:44:11;;;;;;;3.10;2.50;;;;;;;;;;4955637;29;20424;-73
2021/05/19 05:46:37;;;;;;;2.97;2.77;;;;;;;;;;4955518;29;20516;-71
2021/05/19 05:52:06;;;;;;;4.00;3.70;;;;;;;;;;4955428;29;20413;-72
2021/05/19 05:54:32;;;;;;;4.57;3.47;;;;;;;;;;4955272;29;20913;-72
2021/05/19 05:56:58;;;;;;;3.47;3.17;;;;;;;;;;4955211;29;20474;-73
2021/05/19 05:59:25;;;;;;;5.17;3.00;;;;;;;;;;4955038;29;20449;-71
2021/05/19 06:01:51;;;;;;;4.40;3.00;;;;;;;;;;4958467;29;20428;-72
2021/05/19 06:07:21;;;;;;;2.43;2.10;;;;;;;;;;4954779;29;20458;-73
2021/05/19 06:09:51;;;;;;;2.30;2.20;;;;;;;;;;4954566;29;20922;-71
2021/05/19 06:12:17;;;;;;;3.30;3.10;;;;;;;;;;4954543;29;20415;-71
2021/05/19 06:14:43;;;;;;;3.20;2.57;;;;;;;;;;4954487;29;20493;-72
2021/05/19 06:17:12;;;;;;;2.40;2.20;;;;;;;;;;4954558;29;20471;-73
2021/05/19 06:22:41;;;;;;;3.33;2.33;;;;;;;;;;4954379;29;20496;-72
2021/05/19 06:25:07;;;;;;;2.80;2.20;;;;;;;;;;4954265;29;20467;-72
2021/05/19 06:27:33;;;;;;;2.70;2.50;;;;;;;;;;4954634;29;20784;-73
2021/05/19 06:29:59;;;;;;;2.77;2.53;;;;;;;;;;4954267;29;20419;-73
2021/05/19 06:32:25;;;;;;;2.70;2.43;;;;;;;;;;4954177;29;20851;-73
2021/05/19 06:34:51;;;;;;;2.10;1.90;;;;;;;;;;4936610;29;20436;-73
2021/05/19 06:37:21;;;;;;;3.40;2.67;;;;;;;;;;4936963;29;20479;-72
2021/05/19 06:39:47;;;;;;;2.50;2.30;;;;;;;;;;4936955;29;20986;-72
2021/05/19 06:42:12;;;;;;;3.83;2.70;;;;;;;;;;4953638;28;20459;-72
2021/05/19 06:44:38;;;;;;;3.63;3.30;;;;;;;;;;4954371;29;20502;-70
2021/05/19 06:47:05;;;;;;;3.20;2.90;;;;;;;;;;4954049;29;20422;-78
2021/05/19 06:52:34;;;;;;;3.07;2.77;;;;;;;;;;4953995;29;20486;-71
2021/05/19 06:55:01;;;;;;;2.40;2.20;;;;;;;;;;4954211;29;20415;-73
2021/05/19 06:57:27;;;;;;;3.10;2.80;;;;;;;;;;4954375;29;20475;-67
2021/05/19 06:59:53;;;;;;;2.87;2.67;;;;;;;;;;4954031;29;20874;-67
2021/05/19 07:02:19;;;;;;;3.13;2.90;;;;;;;;;;4954446;29;20423;-74
2021/05/19 07:07:49;;;;;;;3.40;2.63;;;;;;;;;;4954536;29;20411;-66
2021/05/19 07:10:16;;;;;;;2.63;2.43;;;;;;;;;;4953980;29;20559;-70
2021/05/19 07:12:42;;;;;;;8.70;2.93;;;;;;;;;;4954006;29;20431;-69
2021/05/19 07:15:12;;;;;;;3.40;2.27;;;;;;;;;;4954000;29;20422;-70
2021/05/19 07:17:39;;;;;;;3.60;2.20;;;;;;;;;;4954204;29;20483;-70
2021/05/19 07:23:08;;;;;;;2.00;1.70;;;;;;;;;;4953509;29;20969;-69
2021/05/19 07:25:34;;;;;;;2.10;1.90;;;;;;;;;;4953911;29;20506;-69
2021/05/19 07:28:01;;;;;;;3.30;1.50;;;;;;;;;;4953935;29;20396;-76
2021/05/19 07:30:28;;;;;;;2.20;2.00;;;;;;;;;;4953851;29;20412;-70
2021/05/19 07:32:54;;;;;;;1.80;1.70;;;;;;;;;;4953650;29;20424;-69
2021/05/19 07:35:20;;;;;;;2.77;1.83;;;;;;;;;;4953848;29;20496;-70
2021/05/19 07:37:47;;;;;;;5.27;2.70;;;;;;;;;;4953806;29;20888;-68
2021/05/19 07:40:13;;;;;;;3.60;3.33;;;;;;;;;;4954045;29;20857;-70
2021/05/19 07:42:39;;;;;;;2.57;1.80;;;;;;;;;;4953823;29;20447;-71
2021/05/19 07:45:06;;;;;;;2.13;1.93;;;;;;;;;;4953844;29;20773;-73
2021/05/19 07:47:32;;;;;;;2.50;1.80;;;;;;;;;;4953961;29;20512;-70
2021/05/19 07:53:01;;;;;;;1.83;1.60;;;;;;;;;;4955675;28;20758;-70
2021/05/19 07:55:31;;;;;;;2.50;1.90;;;;;;;;;;4957778;29;20412;-68
2021/05/19 07:58:04;;;;;;;2.20;2.00;;;;;;;;;;4957390;29;20479;-68
2021/05/19 08:02:59;;;;;;;2.63;2.13;;;;;;;;;;4958460;29;20423;-73
2021/05/19 08:08:29;;;;;;;2.83;1.80;;;;;;;;;;4956211;29;20421;-70
2021/05/19 08:10:55;;;;;;;2.33;2.13;;;;;;;;;;4955985;29;20510;-72
2021/05/19 08:13:21;;;;;;;2.70;2.13;;;;;;;;;;4956226;29;20420;-71
2021/05/19 08:15:47;;;;;;;2.90;2.10;;;;;;;;;;4938347;29;20478;-69
2021/05/19 08:18:14;;;;;;;2.53;2.33;;;;;;;;;;4956511;29;20470;-70
2021/05/19 08:20:40;;;;;;;2.77;2.20;;;;;;;;;;4955824;29;20439;-71
2021/05/19 08:23:07;;;;;;;2.67;2.10;;;;;;;;;;4956036;29;20433;-71
2021/05/19 08:25:33;;;;;;;1.97;1.87;;;;;;;;;;4956061;29;20411;-71
2021/05/19 08:27:59;;;;;;;2.10;1.90;;;;;;;;;;4955848;29;20430;-71
2021/05/19 08:30:25;;;;;;;2.50;1.73;;;;;;;;;;4955358;29;20415;-69
2021/05/19 08:32:52;;;;;;;5.17;2.30;;;;;;;;;;4955287;29;20426;-70
2021/05/19 08:38:22;;;;;;;2.60;2.40;;;;;;;;;;4955573;29;20451;-71
2021/05/19 08:40:48;;;;;;;2.93;1.70;;;;;;;;;;4955987;29;20477;-70
2021/05/19 08:43:14;;;;;;;2.53;1.67;;;;;;;;;;4956036;29;20534;-69
2021/05/19 08:45:41;;;;;;;3.50;2.50;;;;;;;;;;4955731;29;20440;-70
2021/05/19 08:48:08;;;;;;;3.50;2.30;;;;;;;;;;4955478;29;20965;-71
2021/05/19 08:53:37;;;;;;;2.10;1.90;;;;;;;;;;4955383;29;20418;-69
2021/05/19 08:56:07;;;;;;;1.73;1.63;;;;;;;;;;4955666;29;20463;-70
2021/05/19 08:58:34;;;;;;;2.60;2.20;;;;;;;;;;4954873;29;20511;-69
2021/05/19 09:01:00;;;;;;;1.80;1.70;;;;;;;;;;4955529;29;20411;-70
2021/05/19 09:03:26;;;;;;;4.03;2.50;;;;;;;;;;4955709;29;20427;-70
2021/05/19 09:08:55;;;;;;;3.07;2.10;;;;;;;;;;4955402;29;20458;-69
2021/05/19 09:11:21;;;;;;;1.87;1.70;;;;;;;;;;4955239;29;20459;-70
2021/05/19 09:13:47;;;;;;;2.17;1.90;;;;;;;;;;4955166;29;20414;-69
2021/05/19 09:16:24;;;;;;;2.80;1.77;;;;;;;;;;4954890;29;20823;-69
2021/05/19 09:18:52;;;;;;;1.70;1.60;;;;;;;;;;4955280;29;20932;-72
2021/05/19 09:21:44;;;;;;;3.07;1.70;;;;;;;;;;4954875;29;20474;-70
2021/05/19 09:24:21;;;;;;;2.23;1.90;;;;;;;;;;4952103;29;20439;-71
2021/05/19 09:27:00;;;;;;;2.03;1.77;;;;;;;;;;4955289;29;20423;-73
2021/05/19 09:29:27;;;;;;;1.90;1.80;;;;;;;;;;4954994;29;20419;-72
2021/05/19 09:31:54;;;;;;;1.70;1.23;;;;;;;;;;4954917;29;20483;-71
2021/05/19 09:34:20;;;;;;;3.07;1.57;;;;;;;;;;4954912;29;20424;-72
2021/05/19 09:36:46;;;;;;;3.20;1.20;;;;;;;;;;4954988;29;20492;-70
2021/05/19 09:39:12;;;;;;;3.50;1.30;;;;;;;;;;4954684;29;20902;-70
2021/05/19 09:41:38;;;;;;;1.60;1.50;;;;;;;;;;4954463;29;20519;-71
2021/05/19 09:44:06;;;;;;;1.17;1.00;;;;;;;;;;4954083;29;20420;-69
2021/05/19 09:55:09;;;;;;;1.47;0.90;;;;;;;;;;4953294;29;20465;-72
2021/05/19 09:57:42;;;;;;;1.37;1.07;;;;;;;;;;4953033;29;20482;-71
2021/05/19 10:00:09;;;;;;;1.10;0.90;;;;;;;;;;4953029;29;20511;-69
2021/05/19 10:02:36;;;;;;;1.83;1.13;;;;;;;;;;4953321;29;20818;-69
2021/05/19 10:05:10;;;;;;;1.50;1.00;;;;;;;;;;4952954;28;20487;-71
2021/05/19 10:07:36;;;;;;;1.03;0.80;;;;;;;;;;4953287;29;20427;-72
2021/05/19 10:10:02;;;;;;;1.47;1.00;;;;;;;;;;4953794;29;20774;-69
2021/05/19 10:12:28;;;;;;;0.93;0.90;;;;;;;;;;4952505;29;20416;-69
2021/05/19 10:14:55;;;;;;;0.77;0.77;;;;;;;;;;4936166;29;20431;-71
2021/05/19 10:17:21;;;;;;;0.77;0.77;;;;;;;;;;4951494;28;20571;-68
2021/05/19 10:20:05;;;;;;;0.80;0.80;;;;;;;;;;4953087;29;20416;-71
2021/05/19 10:22:33;;;;;;;2.90;0.80;;;;;;;;;;4953210;29;20423;-68
2021/05/19 10:27:46;;;;;;;0.63;0.60;;;;;;;;;;4953659;29;20424;-70
2021/05/19 10:30:12;;;;;;;0.83;0.63;;;;;;;;;;4952381;29;21155;-71
2021/05/19 10:32:38;;;;;;;0.83;0.83;;;;;;;;;;4935152;29;20438;-70
2021/05/19 10:35:06;;;;;;;1.50;0.50;;;;;;;;;;4953131;29;20822;-69
2021/05/19 10:37:37;;;;;;;1.70;0.70;;;;;;;;;;4952308;29;20912;-70
2021/05/19 10:40:17;;;;;;;1.20;0.73;;;;;;;;;;4952980;29;20824;-71
2021/05/19 10:42:45;;;;;;;1.83;0.67;;;;;;;;;;4953098;29;20429;-70
2021/05/19 10:45:13;;;;;;;1.13;0.77;;;;;;;;;;4952856;29;20412;-73
2021/05/19 10:47:40;;;;;;;0.70;0.70;;;;;;;;;;4952403;29;20425;-70
2021/05/19 10:50:19;;;;;;;1.20;0.50;;;;;;;;;;4952384;29;20438;-70
2021/05/19 10:59:01;;;;;;;2.30;0.90;;;;;;;;;;4952743;29;20450;-70
2021/05/19 11:01:39;;;;;;;0.40;0.40;;;;;;;;;;4878037;29;20434;-74
2021/05/19 11:04:15;;;;;;;1.20;0.70;;;;;;;;;;4894952;29;20774;-70
2021/05/19 11:07:03;;;;;;;1.77;0.93;;;;;;;;;;4895310;29;20445;-72
2021/05/19 11:09:33;;;;;;;0.80;0.60;;;;;;;;;;4894693;29;20420;-70
2021/05/19 11:12:18;;;;;;;0.60;0.60;;;;;;;;;;4894562;29;20462;-70
2021/05/19 11:14:48;;;;;;;1.30;0.60;;;;;;;;;;4894414;29;20928;-70
2021/05/19 11:17:20;;;;;;;1.23;1.00;;;;;;;;;;4894579;29;20484;-72
2021/05/19 11:19:46;;;;;;;0.70;0.70;;;;;;;;;;4894632;29;20443;-70
2021/05/19 11:22:13;;;;;;;3.83;1.10;;;;;;;;;;4894832;29;20850;-72
2021/05/19 11:24:52;;;;;;;4.90;1.00;;;;;;;;;;4895365;29;20462;-68
2021/05/19 11:27:19;;;;;;;0.57;0.50;;;;;;;;;;4895824;29;20640;-75
2021/05/19 11:29:46;;;;;;;3.13;0.97;;;;;;;;;;4898856;29;20595;-70
2021/05/19 11:32:16;;;;;;;0.50;0.50;;;;;;;;;;4929094;29;20451;-74
2021/05/19 11:34:42;;;;;;;2.30;0.80;;;;;;;;;;4956337;29;20428;-75
2021/05/19 11:37:08;;;;;;;2.27;0.60;;;;;;;;;;4956523;29;20573;-70
2021/05/19 11:39:44;;;;;;;2.53;0.70;;;;;;;;;;4956376;29;20566;-72
2021/05/19 11:42:27;;;;;;;3.07;0.70;;;;;;;;;;4955588;29;20471;-71
2021/05/19 11:45:01;;;;;;;0.70;0.60;;;;;;;;;;4956732;29;20450;-74
2021/05/19 11:47:29;;;;;;;1.10;0.90;;;;;;;;;;4956327;29;20439;-70
2021/05/19 11:53:15;;;;;;;2.70;0.77;;;;;;;;;;4896994;29;20785;-70
2021/05/19 11:55:45;;;;;;;1.30;0.80;;;;;;;;;;4951779;29;20427;-70
2021/05/19 11:58:11;;;;;;;1.00;0.67;;;;;;;;;;4956613;29;20514;-70
2021/05/19 12:00:42;;;;;;;2.97;0.63;;;;;;;;;;4955979;29;20933;-74
2021/05/19 12:03:09;;;;;;;3.00;1.00;;;;;;;;;;4956339;29;20423;-69
2021/05/19 12:08:39;;;;;;;2.03;0.80;;;;;;;;;;4956153;29;20482;-73
2021/05/19 12:11:06;;;;;;;9.83;0.80;;;;;;;;;;4956133;29;20432;-72
2021/05/19 12:13:35;;;;;;;2.43;0.83;;;;;;;;;;4956314;29;20411;-72
2021/05/19 12:16:01;;;;;;;0.73;0.60;;;;;;;;;;4955676;29;20424;-69
2021/05/19 12:18:27;;;;;;;1.00;0.70;;;;;;;;;;4956004;29;20427;-71
2021/05/19 12:23:57;;;;;;;4.20;0.90;;;;;;;;;;4955912;29;20421;-71
2021/05/19 12:26:25;;;;;;;1.23;0.60;;;;;;;;;;4956094;29;20420;-72
2021/05/19 12:28:51;;;;;;;1.17;0.70;;;;;;;;;;4955649;29;20910;-72
2021/05/19 12:31:34;;;;;;;1.60;1.03;;;;;;;;;;4955592;29;20446;-70
2021/05/19 12:34:00;;;;;;;2.07;0.90;;;;;;;;;;4938263;29;20514;-71
2021/05/19 12:39:31;;;;;;;4.53;0.67;;;;;;;;;;4954517;28;20439;-71
2021/05/19 12:41:58;;;;;;;1.30;0.70;;;;;;;;;;4938260;29;20428;-78
2021/05/19 12:44:32;;;;;;;2.13;0.83;;;;;;;;;;4955724;29;20420;-77
2021/05/19 12:47:02;;;;;;;0.90;0.70;;;;;;;;;;4955805;29;20756;-78
2021/05/19 12:49:28;;;;;;;1.93;0.77;;;;;;;;;;4938144;29;20499;-79
2021/05/19 12:54:57;;;;;;;2.37;0.67;;;;;;;;;;4955700;29;20413;-79
2021/05/19 12:57:31;;;;;;;1.00;0.77;;;;;;;;;;4955511;29;20824;-81
2021/05/19 13:00:16;;;;;;;1.53;0.60;;;;;;;;;;4955349;29;20449;-80
2021/05/19 13:02:44;;;;;;;1.30;1.17;;;;;;;;;;4938080;29;20454;-78
2021/05/19 13:05:20;;;;;;;1.10;0.70;;;;;;;;;;4955165;29;20477;-78
2021/05/19 13:10:51;;;;;;;1.23;0.63;;;;;;;;;;4955011;29;20423;-78
2021/05/19 13:13:30;;;;;;;1.80;0.90;;;;;;;;;;4955408;29;20426;-77
2021/05/19 13:16:08;;;;;;;2.17;0.70;;;;;;;;;;4955031;29;20536;-77
2021/05/19 13:18:51;;;;;;;3.33;0.80;;;;;;;;;;4954897;29;20440;-77
2021/05/19 13:24:09;;;;;;;1.20;0.77;;;;;;;;;;4941007;29;20530;-78
2021/05/19 13:26:39;;;;;;;5.43;1.10;;;;;;;;;;4954555;29;20514;-78
2021/05/19 13:29:07;;;;;;;1.50;1.00;;;;;;;;;;4954549;29;20471;-77
2021/05/19 13:31:39;;;;;;;2.60;0.90;;;;;;;;;;4954082;29;20431;-78
2021/05/19 13:36:44;;;;;;;0.50;0.50;;;;;;;;;;4954032;29;20463;-77
2021/05/19 13:39:24;;;;;;;2.77;0.80;;;;;;;;;;4953646;29;20434;-79
2021/05/19 13:41:54;;;;;;;1.80;0.70;;;;;;;;;;4954349;29;20756;-78
2021/05/19 13:44:21;;;;;;;5.07;1.40;;;;;;;;;;4953634;29;20567;-77
2021/05/19 13:46:49;;;;;;;2.53;1.43;;;;;;;;;;4952465;29;20490;-75
2021/05/19 13:49:24;;;;;;;1.70;0.70;;;;;;;;;;4952317;29;20416;-76
2021/05/19 13:51:52;;;;;;;2.70;0.93;;;;;;;;;;4954264;28;20883;-77
2021/05/19 13:54:18;;;;;;;0.90;0.50;;;;;;;;;;4952549;29;20794;-76
2021/05/19 13:56:44;;;;;;;1.10;0.73;;;;;;;;;;4952831;29;20475;-78
2021/05/19 13:59:11;;;;;;;2.20;0.77;;;;;;;;;;4952868;29;20427;-76
2021/05/19 14:01:37;;;;;;;3.33;0.70;;;;;;;;;;4953670;29;20781;-76
2021/05/19 14:04:04;;;;;;;4.20;1.10;;;;;;;;;;4952981;29;20411;-77
2021/05/19 14:06:30;;;;;;;1.63;0.50;;;;;;;;;;4952785;29;20463;-81
2021/05/19 14:12:12;;;;;;;2.07;0.70;;;;;;;;;;4953341;29;20510;-79
2021/05/19 14:19:59;;;;;;;2.53;0.70;;;;;;;;;;4953024;29;20408;-77
2021/05/19 14:27:53;;;;;;;0.77;0.60;;;;;;;;;;4959922;28;20509;-77
2021/05/19 14:30:20;;;;;;;2.83;0.60;;;;;;;;;;4953298;29;20502;-80
2021/05/19 14:32:46;;;;;;;0.70;0.40;;;;;;;;;;4953420;29;20784;-78
2021/05/19 15:00:01;;;;;;;2.10;0.70;;;;;;;;;;4875473;29;20418;-77
2021/05/19 15:02:27;;;;;;;1.60;0.50;;;;;;;;;;4922037;29;20463;-80
2021/05/19 15:04:56;;;;;;;0.63;0.53;;;;;;;;;;4952681;28;21005;-80
2021/05/19 15:10:26;;;;;;;1.70;0.70;;;;;;;;;;4953167;29;20827;-81
2021/05/19 15:12:52;;;;;;;0.40;0.40;;;;;;;;;;4953388;29;20415;-81
2021/05/19 15:15:18;;;;;;;1.27;0.53;;;;;;;;;;4953250;29;20797;-79
2021/05/19 15:17:44;;;;;;;1.07;0.60;;;;;;;;;;4953031;29;20834;-77
2021/05/19 15:20:10;;;;;;;0.70;0.43;;;;;;;;;;4952743;29;20415;-81
2021/05/19 15:25:39;;;;;;;1.77;0.60;;;;;;;;;;4953043;29;20460;-81
2021/05/19 15:28:05;;;;;;;0.50;0.50;;;;;;;;;;4953067;29;20420;-77
2021/05/19 15:30:31;;;;;;;0.50;0.50;;;;;;;;;;4952770;29;20412;-81
2021/05/19 15:32:57;;;;;;;0.80;0.40;;;;;;;;;;4952796;29;20412;-78
2021/05/19 15:35:23;;;;;;;1.17;0.80;;;;;;;;;;4952512;29;20506;-81
2021/05/19 15:40:53;;;;;;;5.10;0.70;;;;;;;;;;4952725;29;20842;-81
2021/05/19 15:43:19;;;;;;;0.80;0.40;;;;;;;;;;4952521;29;20432;-81
2021/05/19 15:45:46;;;;;;;0.63;0.50;;;;;;;;;;4952651;29;20420;-80
2021/05/19 15:48:12;;;;;;;0.63;0.63;;;;;;;;;;4952708;29;20914;-79
2021/05/19 15:50:41;;;;;;;1.33;0.40;;;;;;;;;;4952334;29;20434;-82
2021/05/19 15:56:11;;;;;;;0.90;0.47;;;;;;;;;;4952639;29;20437;-79
2021/05/19 15:58:37;;;;;;;0.70;0.40;;;;;;;;;;4951295;29;20430;-79
2021/05/19 16:01:04;;;;;;;1.00;0.70;;;;;;;;;;4951642;29;20483;-78
2021/05/19 16:03:36;;;;;;;1.33;0.40;;;;;;;;;;4952130;29;20423;-80
2021/05/19 16:06:02;;;;;;;0.70;0.50;;;;;;;;;;4951887;29;20541;-76
2021/05/19 16:11:31;;;;;;;0.60;0.50;;;;;;;;;;4952237;29;20442;-76
2021/05/19 16:13:57;;;;;;;3.27;0.60;;;;;;;;;;4952016;28;20419;-78
2021/05/19 16:16:25;;;;;;;0.50;0.40;;;;;;;;;;4955020;29;20557;-76
2021/05/19 16:18:52;;;;;;;1.00;0.50;;;;;;;;;;4955284;29;20434;-82
2021/05/19 16:21:18;;;;;;;0.90;0.30;;;;;;;;;;4954987;29;20474;-81
2021/05/19 16:26:47;;;;;;;0.50;0.40;;;;;;;;;;4954694;29;20962;-78
2021/05/19 16:30:12;;;;;;;0.40;0.37;;;;;;;;;;4955696;29;20585;-78
2021/05/19 16:32:18;;;;;;;0.40;0.30;;;;;;;;;;4955011;29;20509;-76
2021/05/19 16:34:45;;;;;;;0.50;0.40;;;;;;;;;;4955519;29;20916;-79
2021/05/19 16:37:11;;;;;;;0.63;0.30;;;;;;;;;;4955901;29;20530;-79
2021/05/19 16:42:40;;;;;;;1.23;0.40;;;;;;;;;;4955142;29;20913;-76
2021/05/19 16:45:07;;;;;;;0.60;0.40;;;;;;;;;;4955393;29;20948;-78
2021/05/19 16:47:33;;;;;;;1.20;0.43;;;;;;;;;;4955411;29;20777;-80
2021/05/19 16:49:59;;;;;;;0.40;0.40;;;;;;;;;;4955042;29;20420;-77
2021/05/19 16:52:25;;;;;;;1.50;0.43;;;;;;;;;;4955449;29;20895;-79
2021/05/19 16:57:57;;;;;;;0.70;0.70;;;;;;;;;;4954968;29;20473;-78
2021/05/19 17:00:23;;;;;;;7.00;0.70;;;;;;;;;;4955200;29;20877;-79
2021/05/19 17:05:37;;;;;;;0.60;0.50;;;;;;;;;;4954778;28;20501;-77
2021/05/19 17:08:04;;;;;;;0.50;0.43;;;;;;;;;;4955324;29;20419;-78
2021/05/19 17:13:33;;;;;;;0.80;0.40;;;;;;;;;;4955879;29;20511;-79
2021/05/19 17:15:59;;;;;;;1.83;0.70;;;;;;;;;;4938085;29;20530;-79
2021/05/19 17:18:25;;;;;;;0.50;0.47;;;;;;;;;;4955368;29;20435;-79
2021/05/19 17:20:51;;;;;;;1.80;0.40;;;;;;;;;;4955121;29;20781;-78
2021/05/19 17:23:17;;;;;;;1.50;0.60;;;;;;;;;;4955476;29;20463;-78
2021/05/19 17:28:47;;;;;;;0.40;0.40;;;;;;;;;;4955449;29;20423;-79
2021/05/19 17:31:13;;;;;;;2.40;0.63;;;;;;;;;;4954953;29;20436;-82
2021/05/19 17:33:39;;;;;;;1.07;0.57;;;;;;;;;;4955708;29;20906;-79
2021/05/19 17:36:05;;;;;;;0.80;0.40;;;;;;;;;;4955617;29;20432;-81
2021/05/19 17:38:31;;;;;;;0.83;0.53;;;;;;;;;;4956140;29;20490;-80
2021/05/19 17:44:02;;;;;;;0.70;0.50;;;;;;;;;;4955650;29;21050;-79
2021/05/19 17:46:28;;;;;;;2.93;0.50;;;;;;;;;;4955364;29;20443;-76
2021/05/19 17:49:09;;;;;;;0.60;0.50;;;;;;;;;;4955391;29;20482;-80
2021/05/19 17:51:39;;;;;;;0.80;0.60;;;;;;;;;;4954338;29;20428;-82
2021/05/19 17:54:06;;;;;;;1.57;0.80;;;;;;;;;;4954704;29;20428;-75
2021/05/19 17:56:32;;;;;;;1.03;0.50;;;;;;;;;;4954935;29;20814;-78
2021/05/19 17:58:58;;;;;;;1.37;0.50;;;;;;;;;;4954973;29;20427;-79
2021/05/19 18:01:26;;;;;;;1.90;0.93;;;;;;;;;;4954904;29;20443;-80
2021/05/19 18:03:57;;;;;;;1.27;0.40;;;;;;;;;;4955155;29;20423;-77
2021/05/19 18:06:23;;;;;;;0.70;0.70;;;;;;;;;;4936195;29;20443;-80
2021/05/19 18:08:49;;;;;;;0.90;0.60;;;;;;;;;;4936248;29;20432;-81
2021/05/19 18:14:19;;;;;;;0.60;0.57;;;;;;;;;;4936047;29;20419;-79